createdAt,value
2019-02-16T00:03:48.091Z,17.30
2019-02-16T00:06:38.686Z,16.27
2019-02-16T00:09:29.042Z,15.93
2019-02-16T00:12:19.119Z,17.33
2019-02-16T00:15:09.722Z,16.50
2019-02-16T00:18:00.291Z,15.10
2019-02-16T00:20:50.559Z,15.27
2019-02-16T00:23:41.538Z,16.67
2019-02-16T00:26:32.293Z,15.83
2019-02-16T00:29:22.589Z,16.00
2019-02-16T00:32:12.907Z,16.23
2019-02-16T00:35:03.751Z,14.73
2019-02-16T00:37:54.324Z,16.37
2019-02-16T00:40:44.474Z,14.50
2019-02-16T00:43:34.558Z,16.13
2019-02-16T00:46:24.563Z,15.70
2019-02-16T00:49:14.906Z,17.00
2019-02-16T00:52:04.839Z,18.60
2019-02-16T00:54:54.842Z,19.57
2019-02-16T00:57:45.202Z,19.17
2019-02-16T01:00:35.214Z,19.07
2019-02-16T01:03:25.694Z,18.67
2019-02-16T01:06:16.709Z,17.53
2019-02-16T01:09:07.613Z,17.63
2019-02-16T01:11:57.697Z,17.67
2019-02-16T01:14:48.073Z,18.57
2019-02-16T01:17:38.035Z,17.67
2019-02-16T01:20:28.175Z,16.83
2019-02-16T01:23:18.370Z,18.67
2019-02-16T01:26:08.546Z,17.40
2019-02-16T01:28:58.942Z,17.70
2019-02-16T01:31:49.103Z,19.30
2019-02-16T01:34:39.523Z,17.17
2019-02-16T01:37:30.545Z,17.63
2019-02-16T01:40:20.599Z,17.03
2019-02-16T01:43:10.964Z,17.30
2019-02-16T01:46:01.196Z,17.50
2019-02-16T01:48:51.142Z,18.20
2019-02-16T01:51:41.395Z,19.80
2019-02-16T01:54:31.987Z,17.03
2019-02-16T01:57:21.969Z,18.70
2019-02-16T02:00:12.413Z,18.30
2019-02-16T02:03:02.850Z,18.73
2019-02-16T02:05:53.232Z,18.23
2019-02-16T02:08:43.578Z,17.70
2019-02-16T02:11:33.759Z,17.43
2019-02-16T02:14:24.041Z,18.43
2019-02-16T02:17:14.341Z,18.60
2019-02-16T02:20:05.719Z,18.80
2019-02-16T02:22:56.261Z,19.50
2019-02-16T02:25:46.181Z,19.47
2019-02-16T02:28:36.490Z,18.77
2019-02-16T02:31:27.301Z,18.43
2019-02-16T02:34:17.630Z,18.57
2019-02-16T02:37:07.933Z,18.77
2019-02-16T02:39:58.060Z,17.70
2019-02-16T02:42:48.314Z,17.70
2019-02-16T02:45:38.284Z,19.20
2019-02-16T02:48:28.418Z,19.10
2019-02-16T02:51:18.435Z,19.80
2019-02-16T02:54:08.954Z,18.50
2019-02-16T02:56:59.555Z,21.00
2019-02-16T02:59:49.926Z,19.37
2019-02-16T03:02:40.366Z,18.33
2019-02-16T03:05:30.652Z,19.07
2019-02-16T03:08:21.110Z,19.27
2019-02-16T03:11:11.494Z,18.53
2019-02-16T03:14:02.136Z,18.03
2019-02-16T03:16:52.924Z,17.50
2019-02-16T03:19:42.988Z,17.43
2019-02-16T03:23:22.459Z,17.37
2019-02-16T03:26:39.058Z,17.03
2019-02-16T03:29:50.042Z,18.70
2019-02-16T03:33:03.716Z,19.63
2019-02-16T03:36:30.519Z,18.17
2019-02-16T03:39:34.264Z,17.97
2019-02-16T03:42:24.597Z,18.67
2019-02-16T03:45:14.617Z,19.80
2019-02-16T03:48:05.029Z,18.97
2019-02-16T03:50:55.074Z,20.17
2019-02-16T03:53:45.306Z,18.27
2019-02-16T03:56:35.663Z,19.93
2019-02-16T03:59:25.788Z,19.97
2019-02-16T04:02:15.870Z,19.77
2019-02-16T04:05:06.393Z,19.47
2019-02-16T04:07:56.480Z,19.10
2019-02-16T04:10:47.179Z,20.13
2019-02-16T04:13:37.348Z,19.50
2019-02-16T04:16:27.611Z,19.33
2019-02-16T04:19:17.658Z,19.47
2019-02-16T04:22:08.633Z,19.97
2019-02-16T04:24:58.925Z,21.27
2019-02-16T04:27:49.286Z,20.90
2019-02-16T04:30:39.533Z,20.43
2019-02-16T04:33:29.439Z,18.70
2019-02-16T04:36:19.731Z,19.57
2019-02-16T04:39:10.008Z,20.13
2019-02-16T04:42:00.063Z,20.43
2019-02-16T04:44:50.263Z,19.93
2019-02-16T04:47:40.546Z,21.03
2019-02-16T04:50:31.087Z,21.77
2019-02-16T04:53:21.557Z,21.87
2019-02-16T04:56:12.138Z,22.50
2019-02-16T04:59:02.360Z,21.03
2019-02-16T05:01:52.425Z,20.60
2019-02-16T05:04:42.615Z,21.50
2019-02-16T05:07:32.635Z,19.47
2019-02-16T05:10:22.847Z,19.80
2019-02-16T05:13:12.774Z,19.73
2019-02-16T05:16:03.057Z,20.37
2019-02-16T05:18:53.169Z,20.57
2019-02-16T05:21:43.379Z,17.83
2019-02-16T05:24:33.469Z,20.83
2019-02-16T05:27:23.646Z,19.90
2019-02-16T05:30:14.020Z,19.40
2019-02-16T05:33:04.302Z,18.87
2019-02-16T05:35:54.366Z,20.00
2019-02-16T05:38:44.449Z,21.43
2019-02-16T05:41:34.727Z,19.77
2019-02-16T05:44:24.846Z,19.17
2019-02-16T05:47:15.330Z,19.60
2019-02-16T05:50:05.695Z,20.43
2019-02-16T05:52:55.676Z,19.37
2019-02-16T05:55:45.813Z,20.13
2019-02-16T05:58:35.988Z,19.73
2019-02-16T06:01:26.253Z,19.80
2019-02-16T06:04:16.299Z,21.00
2019-02-16T06:07:06.421Z,20.63
2019-02-16T06:09:56.447Z,19.70
2019-02-16T06:12:46.602Z,20.83
2019-02-16T06:15:36.745Z,19.87
2019-02-16T06:18:27.093Z,21.13
2019-02-16T06:21:17.395Z,21.93
2019-02-16T06:24:07.360Z,19.93
2019-02-16T06:26:57.479Z,21.33
2019-02-16T06:29:47.662Z,22.27
2019-02-16T06:32:38.001Z,21.80
2019-02-16T06:35:53.471Z,20.60
2019-02-16T06:38:43.423Z,20.47
2019-02-16T06:41:33.641Z,20.10
2019-02-16T06:44:23.847Z,21.50
2019-02-16T06:47:13.989Z,22.67
2019-02-16T06:50:04.983Z,23.30
2019-02-16T06:52:55.301Z,23.30
2019-02-16T06:55:56.878Z,22.17
2019-02-16T06:58:46.874Z,23.70
2019-02-16T07:01:37.233Z,22.57
2019-02-16T07:04:27.509Z,22.10
2019-02-16T07:07:17.526Z,21.93
2019-02-16T07:10:08.538Z,22.60
2019-02-16T07:12:58.916Z,20.43
2019-02-16T07:16:08.370Z,21.20
2019-02-16T07:19:02.622Z,21.73
2019-02-16T07:21:52.700Z,20.80
2019-02-16T07:24:42.771Z,19.57
2019-02-16T07:27:33.042Z,18.70
2019-02-16T07:30:23.661Z,16.57
2019-02-16T07:33:14.418Z,17.03
2019-02-16T07:36:04.532Z,17.20
2019-02-16T07:38:54.721Z,19.60
2019-02-16T07:41:44.911Z,17.17
2019-02-16T07:44:44.710Z,17.57
2019-02-16T07:48:03.138Z,18.17
2019-02-16T07:50:57.825Z,18.63
2019-02-16T07:54:05.978Z,17.27
2019-02-16T07:57:18.182Z,18.17
2019-02-16T08:00:23.990Z,18.77
2019-02-16T08:03:33.040Z,18.47
2019-02-16T08:06:45.247Z,18.07
2019-02-16T08:09:58.546Z,18.90
2019-02-16T08:13:06.370Z,18.70
2019-02-16T08:16:12.545Z,18.73
2019-02-16T08:19:22.971Z,18.60
2019-02-16T08:22:37.821Z,18.97
2019-02-16T08:25:46.930Z,18.93
2019-02-16T08:28:45.947Z,18.17
2019-02-16T08:31:55.770Z,19.10
2019-02-16T08:35:13.495Z,19.10
2019-02-16T08:38:33.337Z,22.43
2019-02-16T08:41:42.086Z,19.67
2019-02-16T08:44:41.745Z,18.27
2019-02-16T08:48:00.770Z,19.67
2019-02-16T08:51:07.734Z,19.67
2019-02-16T08:54:08.078Z,19.93
2019-02-16T08:57:20.004Z,21.60
2019-02-16T09:00:21.433Z,22.67
2019-02-16T09:03:33.746Z,20.33
2019-02-16T09:07:01.250Z,19.77
2019-02-16T09:10:13.539Z,21.00
2019-02-16T09:13:09.564Z,18.80
2019-02-16T09:16:05.690Z,20.33
2019-02-16T09:19:20.846Z,18.33
2019-02-16T09:22:28.224Z,19.33
2019-02-16T09:25:24.510Z,20.17
2019-02-16T09:28:29.774Z,19.30
2019-02-16T09:31:38.746Z,18.80
2019-02-16T09:34:46.410Z,17.20
2019-02-16T09:38:04.811Z,18.53
2019-02-16T09:41:17.109Z,18.70
2019-02-16T09:44:14.495Z,18.63
2019-02-16T09:47:22.821Z,19.63
2019-02-16T09:50:50.564Z,19.70
2019-02-16T09:54:08.630Z,19.53
2019-02-16T09:57:17.147Z,22.13
2019-02-16T10:00:20.710Z,20.17
2019-02-16T10:03:30.212Z,20.73
2019-02-16T10:06:40.961Z,19.57
2019-02-16T10:09:55.394Z,21.33
2019-02-16T10:12:54.119Z,20.50
2019-02-16T10:15:51.993Z,21.40
2019-02-16T10:18:53.554Z,19.97
2019-02-16T10:22:00.710Z,21.27
2019-02-16T10:25:22.105Z,20.43
2019-02-16T10:28:23.781Z,19.83
2019-02-16T10:31:31.798Z,19.70
2019-02-16T10:34:45.990Z,19.83
2019-02-16T10:38:01.499Z,19.67
2019-02-16T10:41:19.516Z,19.23
2019-02-16T10:44:27.582Z,19.23
2019-02-16T10:47:31.386Z,19.37
2019-02-16T10:50:56.266Z,20.63
2019-02-16T10:53:58.366Z,18.50
2019-02-16T10:56:56.146Z,19.47
2019-02-16T11:00:08.450Z,19.70
2019-02-16T11:03:25.452Z,18.90
2019-02-16T11:06:40.324Z,18.23
2019-02-16T11:09:43.953Z,18.67
2019-02-16T11:12:53.134Z,19.40
2019-02-16T11:16:08.661Z,18.90
2019-02-16T11:19:17.779Z,19.10
2019-02-16T11:22:13.610Z,18.67
2019-02-16T11:25:31.946Z,17.77
2019-02-16T11:28:44.356Z,17.13
2019-02-16T11:31:56.426Z,18.77
2019-02-16T11:35:05.134Z,16.43
2019-02-16T11:38:29.488Z,16.40
2019-02-16T11:41:37.162Z,15.87
2019-02-16T11:44:49.415Z,18.33
2019-02-16T11:48:16.893Z,18.37
2019-02-16T11:51:35.926Z,17.40
2019-02-16T11:54:33.190Z,17.67
2019-02-16T11:58:00.849Z,17.17
2019-02-16T12:01:02.335Z,18.30
2019-02-16T12:04:04.090Z,18.23
2019-02-16T12:07:07.706Z,17.77
2019-02-16T12:10:08.646Z,16.77
2019-02-16T12:13:19.494Z,16.93
2019-02-16T12:18:59.084Z,18.07
2019-02-16T12:21:59.802Z,18.57
2019-02-16T12:25:14.802Z,17.63
2019-02-16T12:28:29.335Z,17.37
2019-02-16T12:31:30.309Z,16.97
2019-02-16T12:34:33.590Z,16.13
2019-02-16T12:37:52.140Z,16.60
2019-02-16T12:40:57.030Z,15.30
2019-02-16T12:44:12.145Z,15.63
2019-02-16T12:47:21.401Z,14.97
2019-02-16T12:50:33.281Z,16.47
2019-02-16T12:54:01.319Z,15.67
2019-02-16T12:57:10.351Z,16.43
2019-02-16T13:00:22.331Z,16.20
2019-02-16T13:03:46.423Z,17.07
2019-02-16T13:07:01.363Z,16.47
2019-02-16T13:10:09.972Z,16.17
2019-02-16T13:13:27.782Z,16.23
2019-02-16T13:16:42.263Z,15.33
2019-02-16T13:19:54.404Z,17.97
2019-02-16T13:22:49.750Z,16.77
2019-02-16T13:25:45.917Z,21.87
2019-02-16T13:28:53.837Z,21.23
2019-02-16T13:31:53.938Z,17.37
2019-02-16T13:34:56.622Z,16.97
2019-02-16T13:37:53.982Z,18.43
2019-02-16T13:41:02.045Z,19.63
2019-02-16T13:44:11.289Z,21.70
2019-02-16T13:47:29.556Z,19.03
2019-02-16T13:50:44.489Z,18.93
2019-02-16T13:53:42.435Z,19.40
2019-02-16T13:56:54.857Z,19.17
2019-02-16T13:59:56.801Z,20.10
2019-02-16T14:02:53.991Z,20.47
2019-02-16T14:06:06.962Z,20.30
2019-02-16T14:09:04.906Z,19.27
2019-02-16T14:12:23.462Z,18.50
2019-02-16T14:15:26.230Z,17.53
2019-02-16T14:18:16.325Z,18.60
2019-02-16T14:21:06.320Z,16.93
2019-02-16T14:23:56.658Z,18.33
2019-02-16T14:26:46.875Z,19.80
2019-02-16T14:29:37.396Z,18.73
2019-02-16T14:32:27.821Z,17.87
2019-02-16T14:35:17.920Z,17.77
2019-02-16T14:38:16.901Z,18.43
2019-02-16T14:41:07.446Z,19.00
2019-02-16T14:43:57.886Z,18.97
2019-02-16T14:46:48.112Z,18.03
2019-02-16T14:49:38.440Z,19.20
2019-02-16T14:52:28.702Z,17.67
2019-02-16T14:55:18.694Z,17.00
2019-02-16T14:58:09.417Z,17.53
2019-02-16T15:00:59.350Z,17.40
2019-02-16T15:03:49.706Z,17.70
2019-02-16T15:06:41.117Z,18.37
2019-02-16T15:09:32.550Z,18.10
2019-02-16T15:12:22.805Z,17.23
2019-02-16T15:15:12.998Z,17.17
2019-02-16T15:18:03.890Z,17.33
2019-02-16T15:20:54.209Z,16.67
2019-02-16T15:23:44.526Z,16.97
2019-02-16T15:26:34.677Z,16.80
2019-02-16T15:29:24.997Z,16.70
2019-02-16T15:32:15.494Z,17.43
2019-02-16T15:35:05.733Z,16.80
2019-02-16T15:37:56.020Z,16.40
2019-02-16T15:40:46.378Z,17.83
2019-02-16T15:43:36.539Z,18.33
2019-02-16T15:46:27.114Z,17.77
2019-02-16T15:49:17.546Z,20.03
2019-02-16T15:52:07.645Z,23.30
2019-02-16T15:54:57.645Z,22.03
2019-02-16T15:57:48.098Z,20.27
2019-02-16T16:00:38.500Z,19.00
2019-02-16T16:03:28.927Z,20.67
2019-02-16T16:06:19.118Z,21.97
2019-02-16T16:09:28.462Z,23.67
2019-02-16T16:12:37.130Z,27.40
2019-02-16T16:15:52.145Z,22.57
2019-02-16T16:19:00.079Z,19.77
2019-02-16T16:22:08.226Z,19.67
2019-02-16T16:25:04.991Z,20.83
2019-02-16T16:28:17.186Z,18.83
2019-02-16T16:31:20.385Z,18.63
2019-02-16T16:34:31.458Z,19.53
2019-02-16T16:37:28.111Z,20.93
2019-02-16T16:40:36.223Z,19.40
2019-02-16T16:43:34.811Z,20.83
2019-02-16T16:46:34.006Z,19.47
2019-02-16T16:49:52.195Z,19.00
2019-02-16T16:53:01.195Z,25.53
2019-02-16T16:56:10.099Z,20.87
2019-02-16T16:59:28.348Z,20.97
2019-02-16T17:02:29.830Z,22.10
2019-02-16T17:05:38.448Z,21.07
2019-02-16T17:08:56.975Z,20.20
2019-02-16T17:12:06.104Z,20.57
2019-02-16T17:15:06.670Z,19.93
2019-02-16T17:18:22.116Z,18.63
2019-02-16T17:21:33.793Z,18.67
2019-02-16T17:24:39.066Z,18.70
2019-02-16T17:27:36.754Z,20.37
2019-02-16T17:30:41.702Z,20.27
2019-02-16T17:33:40.288Z,19.57
2019-02-16T17:36:49.138Z,18.33
2019-02-16T17:39:53.222Z,20.77
2019-02-16T17:42:56.207Z,20.23
2019-02-16T17:46:00.433Z,19.70
2019-02-16T17:49:24.910Z,20.33
2019-02-16T17:52:37.041Z,25.00
2019-02-16T17:55:45.006Z,30.40
2019-02-16T17:58:52.951Z,29.50
2019-02-16T18:02:01.263Z,23.70
2019-02-16T18:05:13.310Z,21.73
2019-02-16T18:08:28.343Z,21.63
2019-02-16T18:11:37.481Z,22.13
2019-02-16T18:14:46.462Z,22.13
2019-02-16T18:17:52.603Z,24.27
2019-02-16T18:20:49.092Z,24.47
2019-02-16T18:23:47.055Z,25.87
2019-02-16T18:27:02.762Z,24.53
2019-02-16T18:30:30.474Z,24.13
2019-02-16T18:33:45.718Z,24.00
2019-02-16T18:36:55.311Z,24.70
2019-02-16T18:40:03.389Z,22.67
2019-02-16T18:43:07.238Z,23.00
2019-02-16T18:46:04.560Z,23.23
2019-02-16T18:49:13.032Z,23.50
2019-02-16T18:52:21.238Z,25.63
2019-02-16T18:55:33.650Z,22.93
2019-02-16T18:58:48.997Z,22.90
2019-02-16T19:01:44.980Z,26.67
2019-02-16T19:04:53.113Z,22.77
2019-02-16T19:07:51.592Z,22.83
2019-02-16T19:11:03.840Z,25.00
2019-02-16T19:14:18.628Z,28.53
2019-02-16T19:17:14.040Z,28.20
2019-02-16T19:20:26.123Z,26.60
2019-02-16T19:23:41.147Z,30.40
2019-02-16T19:26:50.171Z,30.17
2019-02-16T19:30:07.886Z,28.10
2019-02-16T19:33:07.198Z,27.33
2019-02-16T19:36:07.002Z,26.10
2019-02-16T19:39:19.384Z,26.10
2019-02-16T19:42:32.408Z,27.10
2019-02-16T19:45:42.944Z,30.87
2019-02-16T19:48:47.118Z,38.47
2019-02-16T19:52:02.229Z,34.77
2019-02-16T19:55:17.908Z,49.97
2019-02-16T19:58:26.842Z,30.43
2019-02-16T20:01:35.899Z,29.73
2019-02-16T20:04:51.402Z,28.40
2019-02-16T20:07:50.441Z,29.60
2019-02-16T20:10:59.249Z,29.97
2019-02-16T20:14:20.982Z,33.33
2019-02-16T20:17:42.209Z,31.53
2019-02-16T20:20:48.008Z,31.47
2019-02-16T20:23:55.069Z,31.10
2019-02-16T20:26:58.440Z,32.27
2019-02-16T20:30:14.522Z,30.07
2019-02-16T20:33:23.371Z,28.73
2019-02-16T20:36:36.763Z,30.73
2019-02-16T20:39:52.062Z,31.47
2019-02-16T20:43:06.842Z,29.13
2019-02-16T20:46:18.763Z,30.07
2019-02-16T20:49:36.926Z,30.13
2019-02-16T20:52:37.449Z,30.17
2019-02-16T20:55:45.391Z,31.53
2019-02-16T20:58:45.268Z,34.37
2019-02-16T21:01:51.613Z,32.27
2019-02-16T21:05:00.978Z,29.23
2019-02-16T21:08:21.886Z,30.30
2019-02-16T21:11:37.119Z,31.30
2019-02-16T21:14:40.247Z,29.90
